South Newport, Georgia
Current Conditions -  °F | °C
As of 4:58 PM on Monday 26 Jan 2015 (Local Time) from KLHW Reporting Station
Overcast Overcast  
Wind Chill: 52°   Ceiling: 4200
Heat Index: 52°   Visibility: 10mi
Dew Point: 37°   Wind: 21mph
Humidity: 57%   Direction: 270°W
Pressure: 29.77"   Gusts: 26mph
Location:  31.7217°N, 81.4475°W
Report Text: KLHW 262158Z AUTO 27018G23KT 10SM OVC042 11/03 A2977 RMK AO2 SLP084 T01090026
Loading
Personal Weather Stations






























Interactive Weather Map New forecast layout! Learn more

10-Day Weather Forecast

Advertisements
Track Severe Weather on mobile